sensor_id;sensor_type;location;lat;lon;timestamp;temperature;humidity
22629;DHT22;11481;53.694;9.910;2023-12-20T00:01:07;6.20;99.90
22629;DHT22;11481;53.694;9.910;2023-12-20T00:03:34;6.20;99.90
22629;DHT22;11481;53.694;9.910;2023-12-20T00:06:08;6.20;99.90
22629;DHT22;11481;53.694;9.910;2023-12-20T00:08:35;6.20;99.90
22629;DHT22;11481;53.694;9.910;2023-12-20T00:11:02;6.20;99.90
22629;DHT22;11481;53.694;9.910;2023-12-20T00:13:29;6.20;99.90
22629;DHT22;11481;53.694;9.910;2023-12-20T00:15:56;6.10;99.90
22629;DHT22;11481;53.694;9.910;2023-12-20T00:18:23;6.10;99.90
22629;DHT22;11481;53.694;9.910;2023-12-20T00:20:50;6.00;99.90
22629;DHT22;11481;53.694;9.910;2023-12-20T00:23:16;6.10;99.90
22629;DHT22;11481;53.694;9.910;2023-12-20T00:25:43;6.10;99.90
22629;DHT22;11481;53.694;9.910;2023-12-20T00:28:10;6.10;99.90
22629;DHT22;11481;53.694;9.910;2023-12-20T00:30:36;6.00;99.90
22629;DHT22;11481;53.694;9.910;2023-12-20T00:33:03;6.00;99.90
22629;DHT22;11481;53.694;9.910;2023-12-20T00:35:30;6.00;99.90
22629;DHT22;11481;53.694;9.910;2023-12-20T00:37:58;6.00;99.90
22629;DHT22;11481;53.694;9.910;2023-12-20T00:40:25;6.00;99.90
22629;DHT22;11481;53.694;9.910;2023-12-20T00:42:52;6.00;99.90
22629;DHT22;11481;53.694;9.910;2023-12-20T00:45:19;6.00;99.90
22629;DHT22;11481;53.694;9.910;2023-12-20T00:47:46;6.00;99.90
22629;DHT22;11481;53.694;9.910;2023-12-20T00:50:13;6.10;99.90
22629;DHT22;11481;53.694;9.910;2023-12-20T00:52:40;6.10;99.90
22629;DHT22;11481;53.694;9.910;2023-12-20T00:55:07;6.10;99.90
22629;DHT22;11481;53.694;9.910;2023-12-20T00:57:34;6.00;99.90
22629;DHT22;11481;53.694;9.910;2023-12-20T01:00:01;6.00;99.90
22629;DHT22;11481;53.694;9.910;2023-12-20T01:02:29;6.00;99.90
22629;DHT22;11481;53.694;9.910;2023-12-20T01:04:55;5.90;99.90
22629;DHT22;11481;53.694;9.910;2023-12-20T01:07:22;5.90;99.90
22629;DHT22;11481;53.694;9.910;2023-12-20T01:09:49;5.90;99.90
22629;DHT22;11481;53.694;9.910;2023-12-20T01:12:16;6.00;99.90
22629;DHT22;11481;53.694;9.910;2023-12-20T01:14:42;5.90;99.90
22629;DHT22;11481;53.694;9.910;2023-12-20T01:17:09;6.00;99.90
22629;DHT22;11481;53.694;9.910;2023-12-20T01:19:36;5.90;99.90
22629;DHT22;11481;53.694;9.910;2023-12-20T01:22:03;5.90;99.90
22629;DHT22;11481;53.694;9.910;2023-12-20T01:24:31;5.80;99.90
22629;DHT22;11481;53.694;9.910;2023-12-20T01:26:57;5.80;99.90
22629;DHT22;11481;53.694;9.910;2023-12-20T01:29:24;5.80;99.90
22629;DHT22;11481;53.694;9.910;2023-12-20T01:31:51;5.70;99.90
22629;DHT22;11481;53.694;9.910;2023-12-20T01:34:18;5.80;99.90
22629;DHT22;11481;53.694;9.910;2023-12-20T01:36:45;5.80;99.90
22629;DHT22;11481;53.694;9.910;2023-12-20T01:39:11;5.80;99.90
22629;DHT22;11481;53.694;9.910;2023-12-20T01:41:53;5.70;99.90
22629;DHT22;11481;53.694;9.910;2023-12-20T01:44:20;5.80;99.90
22629;DHT22;11481;53.694;9.910;2023-12-20T01:46:47;5.70;99.90
22629;DHT22;11481;53.694;9.910;2023-12-20T01:49:14;5.80;99.90
22629;DHT22;11481;53.694;9.910;2023-12-20T01:51:42;5.80;99.90
22629;DHT22;11481;53.694;9.910;2023-12-20T01:54:09;5.80;99.90
22629;DHT22;11481;53.694;9.910;2023-12-20T01:56:36;5.80;99.90
22629;DHT22;11481;53.694;9.910;2023-12-20T01:59:04;5.80;99.90
22629;DHT22;11481;53.694;9.910;2023-12-20T02:01:31;5.80;99.90
22629;DHT22;11481;53.694;9.910;2023-12-20T02:03:59;5.80;99.90
22629;DHT22;11481;53.694;9.910;2023-12-20T02:06:29;5.80;99.90
22629;DHT22;11481;53.694;9.910;2023-12-20T02:08:58;5.80;99.90
22629;DHT22;11481;53.694;9.910;2023-12-20T02:11:25;5.80;99.90
22629;DHT22;11481;53.694;9.910;2023-12-20T02:13:53;5.90;99.90
22629;DHT22;11481;53.694;9.910;2023-12-20T02:16:20;5.90;99.90
22629;DHT22;11481;53.694;9.910;2023-12-20T02:18:47;5.90;99.90
22629;DHT22;11481;53.694;9.910;2023-12-20T02:21:15;5.90;99.90
22629;DHT22;11481;53.694;9.910;2023-12-20T02:23:41;5.80;99.90
22629;DHT22;11481;53.694;9.910;2023-12-20T02:26:08;5.80;99.90
22629;DHT22;11481;53.694;9.910;2023-12-20T02:28:35;5.80;99.90
22629;DHT22;11481;53.694;9.910;2023-12-20T02:31:02;5.90;99.90
22629;DHT22;11481;53.694;9.910;2023-12-20T02:33:29;5.90;99.90
22629;DHT22;11481;53.694;9.910;2023-12-20T02:35:56;5.90;99.90
22629;DHT22;11481;53.694;9.910;2023-12-20T02:38:23;5.90;99.90
22629;DHT22;11481;53.694;9.910;2023-12-20T02:40:49;5.90;99.90
22629;DHT22;11481;53.694;9.910;2023-12-20T02:43:16;5.90;99.90
22629;DHT22;11481;53.694;9.910;2023-12-20T02:45:43;5.90;99.90
22629;DHT22;11481;53.694;9.910;2023-12-20T02:48:10;5.90;99.90
22629;DHT22;11481;53.694;9.910;2023-12-20T02:50:37;6.00;99.90
22629;DHT22;11481;53.694;9.910;2023-12-20T02:53:03;6.00;99.90
22629;DHT22;11481;53.694;9.910;2023-12-20T02:55:30;6.00;99.90
22629;DHT22;11481;53.694;9.910;2023-12-20T02:57:57;6.00;99.90
22629;DHT22;11481;53.694;9.910;2023-12-20T03:00:24;6.10;99.90
22629;DHT22;11481;53.694;9.910;2023-12-20T03:02:51;6.10;99.90
22629;DHT22;11481;53.694;9.910;2023-12-20T03:05:17;6.00;99.90
22629;DHT22;11481;53.694;9.910;2023-12-20T03:07:44;6.00;99.90
22629;DHT22;11481;53.694;9.910;2023-12-20T03:10:12;6.10;99.90
22629;DHT22;11481;53.694;9.910;2023-12-20T03:12:49;6.00;99.90
22629;DHT22;11481;53.694;9.910;2023-12-20T03:15:16;6.00;99.90
22629;DHT22;11481;53.694;9.910;2023-12-20T03:17:43;5.90;99.90
22629;DHT22;11481;53.694;9.910;2023-12-20T03:20:11;6.00;99.90
22629;DHT22;11481;53.694;9.910;2023-12-20T03:22:38;6.00;99.90
22629;DHT22;11481;53.694;9.910;2023-12-20T03:25:04;6.00;99.90
22629;DHT22;11481;53.694;9.910;2023-12-20T03:27:31;6.00;99.90
22629;DHT22;11481;53.694;9.910;2023-12-20T03:29:58;6.00;99.90
22629;DHT22;11481;53.694;9.910;2023-12-20T03:32:25;6.00;99.90
22629;DHT22;11481;53.694;9.910;2023-12-20T03:34:52;6.00;99.90
22629;DHT22;11481;53.694;9.910;2023-12-20T03:37:18;6.00;99.90
22629;DHT22;11481;53.694;9.910;2023-12-20T03:39:45;6.00;99.90
22629;DHT22;11481;53.694;9.910;2023-12-20T03:42:12;5.90;99.90
22629;DHT22;11481;53.694;9.910;2023-12-20T03:44:39;5.90;99.90
22629;DHT22;11481;53.694;9.910;2023-12-20T03:47:07;6.00;99.90
22629;DHT22;11481;53.694;9.910;2023-12-20T03:49:34;6.00;99.90
22629;DHT22;11481;53.694;9.910;2023-12-20T03:52:04;5.90;99.90
22629;DHT22;11481;53.694;9.910;2023-12-20T03:54:31;5.90;99.90
22629;DHT22;11481;53.694;9.910;2023-12-20T03:56:57;5.90;99.90
22629;DHT22;11481;53.694;9.910;2023-12-20T03:59:24;6.00;99.90
22629;DHT22;11481;53.694;9.910;2023-12-20T04:01:51;6.10;99.90
22629;DHT22;11481;53.694;9.910;2023-12-20T04:04:18;6.00;99.90
22629;DHT22;11481;53.694;9.910;2023-12-20T04:06:45;6.00;99.90
22629;DHT22;11481;53.694;9.910;2023-12-20T04:09:12;6.00;99.90
22629;DHT22;11481;53.694;9.910;2023-12-20T04:11:39;6.00;99.90
22629;DHT22;11481;53.694;9.910;2023-12-20T04:14:05;6.00;99.90
22629;DHT22;11481;53.694;9.910;2023-12-20T04:16:34;6.00;99.90
22629;DHT22;11481;53.694;9.910;2023-12-20T04:19:01;6.00;99.90
22629;DHT22;11481;53.694;9.910;2023-12-20T04:21:29;6.00;99.90
22629;DHT22;11481;53.694;9.910;2023-12-20T04:23:56;6.00;99.90
22629;DHT22;11481;53.694;9.910;2023-12-20T04:26:23;6.00;99.90
22629;DHT22;11481;53.694;9.910;2023-12-20T04:28:49;6.00;99.90
22629;DHT22;11481;53.694;9.910;2023-12-20T04:31:20;6.00;99.90
22629;DHT22;11481;53.694;9.910;2023-12-20T04:33:47;6.00;99.90
22629;DHT22;11481;53.694;9.910;2023-12-20T04:36:14;6.00;99.90
22629;DHT22;11481;53.694;9.910;2023-12-20T04:38:41;6.00;99.90
22629;DHT22;11481;53.694;9.910;2023-12-20T04:41:07;6.00;99.90
22629;DHT22;11481;53.694;9.910;2023-12-20T04:43:34;6.00;99.90
22629;DHT22;11481;53.694;9.910;2023-12-20T04:46:01;6.00;99.90
22629;DHT22;11481;53.694;9.910;2023-12-20T04:48:28;6.00;99.90
22629;DHT22;11481;53.694;9.910;2023-12-20T04:50:54;6.00;99.90
22629;DHT22;11481;53.694;9.910;2023-12-20T04:53:21;6.00;99.90
22629;DHT22;11481;53.694;9.910;2023-12-20T04:55:48;6.00;99.90
22629;DHT22;11481;53.694;9.910;2023-12-20T04:58:15;6.10;99.90
22629;DHT22;11481;53.694;9.910;2023-12-20T05:00:42;6.10;99.90
22629;DHT22;11481;53.694;9.910;2023-12-20T05:03:08;6.00;99.90
22629;DHT22;11481;53.694;9.910;2023-12-20T05:05:36;6.10;99.90
22629;DHT22;11481;53.694;9.910;2023-12-20T05:08:03;6.10;99.90
22629;DHT22;11481;53.694;9.910;2023-12-20T05:10:30;6.10;99.90
22629;DHT22;11481;53.694;9.910;2023-12-20T05:12:57;6.10;99.90
22629;DHT22;11481;53.694;9.910;2023-12-20T05:15:24;6.10;99.90
22629;DHT22;11481;53.694;9.910;2023-12-20T05:17:51;6.20;99.90
22629;DHT22;11481;53.694;9.910;2023-12-20T05:20:17;6.20;99.90
22629;DHT22;11481;53.694;9.910;2023-12-20T05:22:44;6.20;99.90
22629;DHT22;11481;53.694;9.910;2023-12-20T05:25:11;6.20;99.90
22629;DHT22;11481;53.694;9.910;2023-12-20T05:27:38;6.20;99.90
22629;DHT22;11481;53.694;9.910;2023-12-20T05:30:06;6.20;99.90
22629;DHT22;11481;53.694;9.910;2023-12-20T05:32:33;6.20;99.90
22629;DHT22;11481;53.694;9.910;2023-12-20T05:34:59;6.20;99.90
22629;DHT22;11481;53.694;9.910;2023-12-20T05:37:26;6.30;99.90
22629;DHT22;11481;53.694;9.910;2023-12-20T05:39:53;6.20;99.90
22629;DHT22;11481;53.694;9.910;2023-12-20T05:42:20;6.10;99.90
22629;DHT22;11481;53.694;9.910;2023-12-20T05:44:46;6.00;99.90
22629;DHT22;11481;53.694;9.910;2023-12-20T05:47:16;6.00;99.90
22629;DHT22;11481;53.694;9.910;2023-12-20T05:49:44;6.00;99.90
22629;DHT22;11481;53.694;9.910;2023-12-20T05:52:11;6.00;99.90
22629;DHT22;11481;53.694;9.910;2023-12-20T05:54:38;6.10;99.90
22629;DHT22;11481;53.694;9.910;2023-12-20T05:57:05;6.00;99.90
22629;DHT22;11481;53.694;9.910;2023-12-20T05:59:31;6.00;99.90
22629;DHT22;11481;53.694;9.910;2023-12-20T06:01:58;6.10;99.90
22629;DHT22;11481;53.694;9.910;2023-12-20T06:04:25;6.10;99.90
22629;DHT22;11481;53.694;9.910;2023-12-20T06:06:51;6.10;99.90
22629;DHT22;11481;53.694;9.910;2023-12-20T06:09:18;6.10;99.90
22629;DHT22;11481;53.694;9.910;2023-12-20T06:11:46;6.10;99.90
22629;DHT22;11481;53.694;9.910;2023-12-20T06:14:12;6.20;99.90
22629;DHT22;11481;53.694;9.910;2023-12-20T06:16:39;6.30;99.90
22629;DHT22;11481;53.694;9.910;2023-12-20T06:19:06;6.20;99.90
22629;DHT22;11481;53.694;9.910;2023-12-20T06:21:33;6.10;99.90
22629;DHT22;11481;53.694;9.910;2023-12-20T06:23:59;6.20;99.90
22629;DHT22;11481;53.694;9.910;2023-12-20T06:26:26;6.20;99.90
22629;DHT22;11481;53.694;9.910;2023-12-20T06:28:53;6.20;99.90
22629;DHT22;11481;53.694;9.910;2023-12-20T06:31:20;6.20;99.90
22629;DHT22;11481;53.694;9.910;2023-12-20T06:33:46;6.20;99.90
22629;DHT22;11481;53.694;9.910;2023-12-20T06:36:13;6.30;99.90
22629;DHT22;11481;53.694;9.910;2023-12-20T06:38:40;6.20;99.90
22629;DHT22;11481;53.694;9.910;2023-12-20T06:41:08;6.30;99.90
22629;DHT22;11481;53.694;9.910;2023-12-20T06:43:37;6.20;99.90
22629;DHT22;11481;53.694;9.910;2023-12-20T06:46:15;6.30;99.90
22629;DHT22;11481;53.694;9.910;2023-12-20T06:48:42;6.30;99.90
22629;DHT22;11481;53.694;9.910;2023-12-20T06:51:14;6.30;99.90
22629;DHT22;11481;53.694;9.910;2023-12-20T06:53:42;6.40;99.90
22629;DHT22;11481;53.694;9.910;2023-12-20T06:56:10;6.40;99.90
22629;DHT22;11481;53.694;9.910;2023-12-20T06:58:41;6.30;99.90
22629;DHT22;11481;53.694;9.910;2023-12-20T07:01:12;6.20;99.90
22629;DHT22;11481;53.694;9.910;2023-12-20T07:03:39;6.30;99.90
22629;DHT22;11481;53.694;9.910;2023-12-20T07:06:07;6.40;99.90
22629;DHT22;11481;53.694;9.910;2023-12-20T07:08:34;6.40;99.90
22629;DHT22;11481;53.694;9.910;2023-12-20T07:11:00;6.40;99.90
22629;DHT22;11481;53.694;9.910;2023-12-20T07:13:27;6.40;99.90
22629;DHT22;11481;53.694;9.910;2023-12-20T07:15:54;6.30;99.90
22629;DHT22;11481;53.694;9.910;2023-12-20T07:18:21;6.40;99.90
22629;DHT22;11481;53.694;9.910;2023-12-20T07:20:47;7.10;99.90
22629;DHT22;11481;53.694;9.910;2023-12-20T07:23:14;6.40;99.90
22629;DHT22;11481;53.694;9.910;2023-12-20T07:25:41;6.40;99.90
22629;DHT22;11481;53.694;9.910;2023-12-20T07:28:08;6.40;99.90
22629;DHT22;11481;53.694;9.910;2023-12-20T07:30:34;6.40;99.90
22629;DHT22;11481;53.694;9.910;2023-12-20T07:33:01;6.40;99.90
22629;DHT22;11481;53.694;9.910;2023-12-20T07:35:29;6.40;99.90
22629;DHT22;11481;53.694;9.910;2023-12-20T07:37:56;6.40;99.90
22629;DHT22;11481;53.694;9.910;2023-12-20T07:40:23;6.40;99.90
22629;DHT22;11481;53.694;9.910;2023-12-20T07:42:50;6.50;99.90
22629;DHT22;11481;53.694;9.910;2023-12-20T07:45:17;6.50;99.90
22629;DHT22;11481;53.694;9.910;2023-12-20T07:47:43;6.50;99.90
22629;DHT22;11481;53.694;9.910;2023-12-20T07:50:11;6.40;99.90
22629;DHT22;11481;53.694;9.910;2023-12-20T07:52:38;6.40;99.90
22629;DHT22;11481;53.694;9.910;2023-12-20T07:55:05;6.40;99.90
22629;DHT22;11481;53.694;9.910;2023-12-20T07:57:32;6.40;99.90
22629;DHT22;11481;53.694;9.910;2023-12-20T07:59:58;6.40;99.90
22629;DHT22;11481;53.694;9.910;2023-12-20T08:02:25;6.60;99.90
22629;DHT22;11481;53.694;9.910;2023-12-20T08:04:52;6.50;99.90
22629;DHT22;11481;53.694;9.910;2023-12-20T08:07:19;6.50;99.90
22629;DHT22;11481;53.694;9.910;2023-12-20T08:09:45;6.50;99.90
22629;DHT22;11481;53.694;9.910;2023-12-20T08:12:12;6.60;99.90
22629;DHT22;11481;53.694;9.910;2023-12-20T08:14:39;6.60;99.90
22629;DHT22;11481;53.694;9.910;2023-12-20T08:17:06;6.60;99.90
22629;DHT22;11481;53.694;9.910;2023-12-20T08:19:32;6.60;99.90
22629;DHT22;11481;53.694;9.910;2023-12-20T08:21:59;6.60;99.90
22629;DHT22;11481;53.694;9.910;2023-12-20T08:24:26;6.60;99.90
22629;DHT22;11481;53.694;9.910;2023-12-20T08:26:53;6.70;99.90
22629;DHT22;11481;53.694;9.910;2023-12-20T08:29:19;6.70;99.90
22629;DHT22;11481;53.694;9.910;2023-12-20T08:31:52;6.70;99.90
22629;DHT22;11481;53.694;9.910;2023-12-20T08:34:19;6.70;99.90
22629;DHT22;11481;53.694;9.910;2023-12-20T08:36:46;6.70;99.90
22629;DHT22;11481;53.694;9.910;2023-12-20T08:39:12;6.70;99.90
22629;DHT22;11481;53.694;9.910;2023-12-20T08:41:39;6.70;99.90
22629;DHT22;11481;53.694;9.910;2023-12-20T08:44:06;6.80;99.90
22629;DHT22;11481;53.694;9.910;2023-12-20T08:46:33;6.80;99.90
22629;DHT22;11481;53.694;9.910;2023-12-20T08:48:59;6.80;99.90
22629;DHT22;11481;53.694;9.910;2023-12-20T08:51:27;6.70;99.90
22629;DHT22;11481;53.694;9.910;2023-12-20T08:53:54;6.80;99.90
22629;DHT22;11481;53.694;9.910;2023-12-20T08:56:21;6.80;99.90
22629;DHT22;11481;53.694;9.910;2023-12-20T08:58:47;6.70;99.90
22629;DHT22;11481;53.694;9.910;2023-12-20T09:01:15;6.70;99.90
22629;DHT22;11481;53.694;9.910;2023-12-20T09:03:42;6.70;99.90
22629;DHT22;11481;53.694;9.910;2023-12-20T09:06:10;6.60;99.90
22629;DHT22;11481;53.694;9.910;2023-12-20T09:08:36;6.50;99.90
22629;DHT22;11481;53.694;9.910;2023-12-20T09:11:03;6.40;99.90
22629;DHT22;11481;53.694;9.910;2023-12-20T09:13:30;6.40;99.90
22629;DHT22;11481;53.694;9.910;2023-12-20T09:15:58;6.40;99.90
22629;DHT22;11481;53.694;9.910;2023-12-20T09:18:25;6.10;99.90
22629;DHT22;11481;53.694;9.910;2023-12-20T09:20:52;5.80;99.90
22629;DHT22;11481;53.694;9.910;2023-12-20T09:23:19;5.60;99.90
22629;DHT22;11481;53.694;9.910;2023-12-20T09:25:46;5.40;99.90
22629;DHT22;11481;53.694;9.910;2023-12-20T09:28:13;5.40;99.90
22629;DHT22;11481;53.694;9.910;2023-12-20T09:30:39;5.40;99.90
22629;DHT22;11481;53.694;9.910;2023-12-20T09:33:07;5.40;99.90
22629;DHT22;11481;53.694;9.910;2023-12-20T09:35:35;5.50;99.90
22629;DHT22;11481;53.694;9.910;2023-12-20T09:38:02;5.40;99.90
22629;DHT22;11481;53.694;9.910;2023-12-20T09:40:29;5.40;99.90
22629;DHT22;11481;53.694;9.910;2023-12-20T09:43:03;5.20;99.90
22629;DHT22;11481;53.694;9.910;2023-12-20T09:45:31;5.20;99.90
22629;DHT22;11481;53.694;9.910;2023-12-20T09:47:59;5.10;99.90
22629;DHT22;11481;53.694;9.910;2023-12-20T09:50:26;5.10;99.90
22629;DHT22;11481;53.694;9.910;2023-12-20T09:52:54;5.20;99.90
22629;DHT22;11481;53.694;9.910;2023-12-20T09:55:25;5.20;99.90
22629;DHT22;11481;53.694;9.910;2023-12-20T09:57:52;5.20;99.90
22629;DHT22;11481;53.694;9.910;2023-12-20T10:00:19;5.20;99.90
22629;DHT22;11481;53.694;9.910;2023-12-20T10:02:56;5.20;99.90
22629;DHT22;11481;53.694;9.910;2023-12-20T10:05:31;5.30;99.90
22629;DHT22;11481;53.694;9.910;2023-12-20T10:07:59;5.30;99.90
22629;DHT22;11481;53.694;9.910;2023-12-20T10:10:27;5.30;99.90
22629;DHT22;11481;53.694;9.910;2023-12-20T10:13:09;5.30;99.90
22629;DHT22;11481;53.694;9.910;2023-12-20T10:15:37;5.30;99.90
22629;DHT22;11481;53.694;9.910;2023-12-20T10:18:04;5.30;99.90
22629;DHT22;11481;53.694;9.910;2023-12-20T10:20:32;5.30;99.90
22629;DHT22;11481;53.694;9.910;2023-12-20T10:23:00;5.30;99.90
22629;DHT22;11481;53.694;9.910;2023-12-20T10:25:27;5.20;99.90
22629;DHT22;11481;53.694;9.910;2023-12-20T10:28:16;5.30;99.90
22629;DHT22;11481;53.694;9.910;2023-12-20T10:30:50;5.30;99.90
22629;DHT22;11481;53.694;9.910;2023-12-20T10:33:24;5.30;99.90
22629;DHT22;11481;53.694;9.910;2023-12-20T10:35:52;5.30;99.90
22629;DHT22;11481;53.694;9.910;2023-12-20T10:38:19;5.30;99.90
22629;DHT22;11481;53.694;9.910;2023-12-20T10:40:46;5.30;99.90
22629;DHT22;11481;53.694;9.910;2023-12-20T10:43:13;5.30;99.90
22629;DHT22;11481;53.694;9.910;2023-12-20T10:45:42;5.40;99.90
22629;DHT22;11481;53.694;9.910;2023-12-20T10:48:10;5.30;99.90
22629;DHT22;11481;53.694;9.910;2023-12-20T10:50:39;5.40;99.90
22629;DHT22;11481;53.694;9.910;2023-12-20T10:53:07;5.40;99.90
22629;DHT22;11481;53.694;9.910;2023-12-20T10:55:34;5.50;99.90
22629;DHT22;11481;53.694;9.910;2023-12-20T10:58:07;5.50;99.90
22629;DHT22;11481;53.694;9.910;2023-12-20T11:00:41;5.60;99.90
22629;DHT22;11481;53.694;9.910;2023-12-20T11:03:11;5.60;99.90
22629;DHT22;11481;53.694;9.910;2023-12-20T11:06:51;5.50;99.90
22629;DHT22;11481;53.694;9.910;2023-12-20T11:09:08;5.50;99.90
22629;DHT22;11481;53.694;9.910;2023-12-20T11:14:34;5.40;99.90
22629;DHT22;11481;53.694;9.910;2023-12-20T11:17:08;5.20;99.90
22629;DHT22;11481;53.694;9.910;2023-12-20T11:22:30;5.30;99.90
22629;DHT22;11481;53.694;9.910;2023-12-20T11:25:09;5.30;99.90
22629;DHT22;11481;53.694;9.910;2023-12-20T11:28:11;5.40;99.90
22629;DHT22;11481;53.694;9.910;2023-12-20T11:30:55;5.30;99.90
22629;DHT22;11481;53.694;9.910;2023-12-20T11:33:23;5.30;99.90
22629;DHT22;11481;53.694;9.910;2023-12-20T11:35:56;5.30;99.90
22629;DHT22;11481;53.694;9.910;2023-12-20T11:38:23;5.50;99.90
22629;DHT22;11481;53.694;9.910;2023-12-20T11:40:53;5.50;99.90
22629;DHT22;11481;53.694;9.910;2023-12-20T11:43:39;5.50;99.90
22629;DHT22;11481;53.694;9.910;2023-12-20T11:46:08;5.50;99.90
22629;DHT22;11481;53.694;9.910;2023-12-20T11:48:38;5.50;99.90
22629;DHT22;11481;53.694;9.910;2023-12-20T11:51:12;5.60;99.90
22629;DHT22;11481;53.694;9.910;2023-12-20T11:53:40;5.60;99.90
22629;DHT22;11481;53.694;9.910;2023-12-20T11:56:09;5.60;99.90
22629;DHT22;11481;53.694;9.910;2023-12-20T11:58:36;5.70;99.90
22629;DHT22;11481;53.694;9.910;2023-12-20T12:01:04;5.70;99.90
22629;DHT22;11481;53.694;9.910;2023-12-20T12:03:31;5.70;99.90
22629;DHT22;11481;53.694;9.910;2023-12-20T12:05:59;5.80;99.90
22629;DHT22;11481;53.694;9.910;2023-12-20T12:08:27;5.80;99.90
22629;DHT22;11481;53.694;9.910;2023-12-20T12:10:54;5.80;99.90
22629;DHT22;11481;53.694;9.910;2023-12-20T12:13:21;6.20;99.90
22629;DHT22;11481;53.694;9.910;2023-12-20T12:15:48;6.00;99.90
22629;DHT22;11481;53.694;9.910;2023-12-20T12:18:18;6.10;99.90
22629;DHT22;11481;53.694;9.910;2023-12-20T12:20:45;6.20;99.90
22629;DHT22;11481;53.694;9.910;2023-12-20T12:23:12;6.30;99.90
22629;DHT22;11481;53.694;9.910;2023-12-20T12:25:39;6.40;99.90
22629;DHT22;11481;53.694;9.910;2023-12-20T12:28:09;6.40;99.90
22629;DHT22;11481;53.694;9.910;2023-12-20T12:30:36;6.50;99.90
22629;DHT22;11481;53.694;9.910;2023-12-20T12:33:12;6.40;99.90
22629;DHT22;11481;53.694;9.910;2023-12-20T12:35:40;6.50;99.90
22629;DHT22;11481;53.694;9.910;2023-12-20T12:38:07;6.60;99.90
22629;DHT22;11481;53.694;9.910;2023-12-20T12:40:35;6.60;99.90
22629;DHT22;11481;53.694;9.910;2023-12-20T12:43:03;6.60;99.90
22629;DHT22;11481;53.694;9.910;2023-12-20T12:45:31;6.60;99.90
22629;DHT22;11481;53.694;9.910;2023-12-20T12:47:57;6.70;99.90
22629;DHT22;11481;53.694;9.910;2023-12-20T12:50:24;6.70;99.90
22629;DHT22;11481;53.694;9.910;2023-12-20T12:52:51;6.70;99.90
22629;DHT22;11481;53.694;9.910;2023-12-20T12:55:18;6.70;99.90
22629;DHT22;11481;53.694;9.910;2023-12-20T12:57:45;6.70;99.90
22629;DHT22;11481;53.694;9.910;2023-12-20T13:00:12;6.70;99.90
22629;DHT22;11481;53.694;9.910;2023-12-20T13:02:40;6.60;99.90
22629;DHT22;11481;53.694;9.910;2023-12-20T13:05:09;6.60;99.90
22629;DHT22;11481;53.694;9.910;2023-12-20T13:07:36;6.60;99.90
22629;DHT22;11481;53.694;9.910;2023-12-20T13:10:04;6.60;99.90
22629;DHT22;11481;53.694;9.910;2023-12-20T13:12:32;6.60;99.90
22629;DHT22;11481;53.694;9.910;2023-12-20T13:14:59;6.60;99.90
22629;DHT22;11481;53.694;9.910;2023-12-20T13:17:26;6.60;99.90
22629;DHT22;11481;53.694;9.910;2023-12-20T13:19:55;6.70;99.90
22629;DHT22;11481;53.694;9.910;2023-12-20T13:22:22;6.70;99.90
22629;DHT22;11481;53.694;9.910;2023-12-20T13:24:49;6.80;99.90
22629;DHT22;11481;53.694;9.910;2023-12-20T13:27:16;6.80;99.90
22629;DHT22;11481;53.694;9.910;2023-12-20T13:29:43;6.80;99.90
22629;DHT22;11481;53.694;9.910;2023-12-20T13:32:09;6.80;99.90
22629;DHT22;11481;53.694;9.910;2023-12-20T13:34:36;6.80;99.90
22629;DHT22;11481;53.694;9.910;2023-12-20T13:37:03;6.70;99.90
22629;DHT22;11481;53.694;9.910;2023-12-20T13:39:31;6.70;99.90
22629;DHT22;11481;53.694;9.910;2023-12-20T13:41:58;6.80;99.90
22629;DHT22;11481;53.694;9.910;2023-12-20T13:44:27;6.80;99.90
22629;DHT22;11481;53.694;9.910;2023-12-20T13:46:54;6.80;99.90
22629;DHT22;11481;53.694;9.910;2023-12-20T13:49:20;6.70;99.90
22629;DHT22;11481;53.694;9.910;2023-12-20T13:51:48;6.70;99.90
22629;DHT22;11481;53.694;9.910;2023-12-20T13:54:15;6.70;99.90
22629;DHT22;11481;53.694;9.910;2023-12-20T13:56:43;6.80;99.90
22629;DHT22;11481;53.694;9.910;2023-12-20T13:59:28;6.80;99.90
22629;DHT22;11481;53.694;9.910;2023-12-20T14:01:55;6.60;99.90
22629;DHT22;11481;53.694;9.910;2023-12-20T14:04:23;6.60;99.90
22629;DHT22;11481;53.694;9.910;2023-12-20T14:07:09;6.50;99.90
22629;DHT22;11481;53.694;9.910;2023-12-20T14:09:37;6.60;99.90
22629;DHT22;11481;53.694;9.910;2023-12-20T14:12:04;6.50;99.90
22629;DHT22;11481;53.694;9.910;2023-12-20T14:14:31;6.50;99.90
22629;DHT22;11481;53.694;9.910;2023-12-20T14:16:58;6.50;99.90
22629;DHT22;11481;53.694;9.910;2023-12-20T14:19:25;6.50;99.90
22629;DHT22;11481;53.694;9.910;2023-12-20T14:21:51;6.40;99.90
22629;DHT22;11481;53.694;9.910;2023-12-20T14:24:18;6.50;99.90
22629;DHT22;11481;53.694;9.910;2023-12-20T14:26:45;6.50;99.90
22629;DHT22;11481;53.694;9.910;2023-12-20T14:29:12;6.50;99.90
22629;DHT22;11481;53.694;9.910;2023-12-20T14:31:38;6.60;99.90
22629;DHT22;11481;53.694;9.910;2023-12-20T14:34:06;6.50;99.90
22629;DHT22;11481;53.694;9.910;2023-12-20T14:36:35;6.50;99.90
22629;DHT22;11481;53.694;9.910;2023-12-20T14:39:02;6.50;99.90
22629;DHT22;11481;53.694;9.910;2023-12-20T14:41:32;6.50;99.90
22629;DHT22;11481;53.694;9.910;2023-12-20T14:43:59;6.50;99.90
22629;DHT22;11481;53.694;9.910;2023-12-20T14:46:31;6.50;99.90
22629;DHT22;11481;53.694;9.910;2023-12-20T14:48:58;6.50;99.90
22629;DHT22;11481;53.694;9.910;2023-12-20T14:51:24;6.50;99.90
22629;DHT22;11481;53.694;9.910;2023-12-20T14:53:51;6.50;99.90
22629;DHT22;11481;53.694;9.910;2023-12-20T14:56:18;6.40;99.90
22629;DHT22;11481;53.694;9.910;2023-12-20T14:58:44;6.40;99.90
22629;DHT22;11481;53.694;9.910;2023-12-20T15:01:11;6.30;99.90
22629;DHT22;11481;53.694;9.910;2023-12-20T15:03:38;6.30;99.90
22629;DHT22;11481;53.694;9.910;2023-12-20T15:06:06;6.30;99.90
22629;DHT22;11481;53.694;9.910;2023-12-20T15:08:34;6.30;99.90
22629;DHT22;11481;53.694;9.910;2023-12-20T15:11:01;6.30;99.90
22629;DHT22;11481;53.694;9.910;2023-12-20T15:13:27;6.40;99.90
22629;DHT22;11481;53.694;9.910;2023-12-20T15:15:54;6.40;99.90
22629;DHT22;11481;53.694;9.910;2023-12-20T15:18:21;6.90;99.90
22629;DHT22;11481;53.694;9.910;2023-12-20T15:20:48;6.40;99.90
22629;DHT22;11481;53.694;9.910;2023-12-20T15:23:16;6.40;99.90
22629;DHT22;11481;53.694;9.910;2023-12-20T15:25:43;6.50;99.90
22629;DHT22;11481;53.694;9.910;2023-12-20T15:28:10;6.40;99.90
22629;DHT22;11481;53.694;9.910;2023-12-20T15:30:37;6.30;99.90
22629;DHT22;11481;53.694;9.910;2023-12-20T15:33:05;6.30;99.90
22629;DHT22;11481;53.694;9.910;2023-12-20T15:35:33;6.40;99.90
22629;DHT22;11481;53.694;9.910;2023-12-20T15:38:00;6.20;99.90
22629;DHT22;11481;53.694;9.910;2023-12-20T15:40:28;6.00;99.90
22629;DHT22;11481;53.694;9.910;2023-12-20T15:42:54;5.80;99.90
22629;DHT22;11481;53.694;9.910;2023-12-20T15:45:22;5.70;99.90
22629;DHT22;11481;53.694;9.910;2023-12-20T15:47:49;5.60;99.90
22629;DHT22;11481;53.694;9.910;2023-12-20T15:50:16;5.60;99.90
22629;DHT22;11481;53.694;9.910;2023-12-20T15:52:44;5.60;99.90
22629;DHT22;11481;53.694;9.910;2023-12-20T15:55:10;5.60;99.90